createdAt,value
2019-03-26T00:01:09.848Z,9.15
2019-03-26T00:02:15.248Z,8.48
2019-03-26T00:03:20.833Z,7.45
2019-03-26T00:04:26.265Z,7.20
2019-03-26T00:05:31.905Z,7.45
2019-03-26T00:06:37.416Z,7.00
2019-03-26T00:07:42.872Z,6.83
2019-03-26T00:08:48.389Z,6.72
2019-03-26T00:09:53.762Z,6.67
2019-03-26T00:10:59.231Z,6.75
2019-03-26T00:12:04.657Z,5.97
2019-03-26T00:13:10.593Z,5.83
2019-03-26T00:14:16.070Z,5.65
2019-03-26T00:15:21.516Z,6.00
2019-03-26T00:16:26.920Z,6.47
2019-03-26T00:17:32.391Z,5.97
2019-03-26T00:18:37.858Z,7.15
2019-03-26T00:19:43.196Z,7.33
2019-03-26T00:20:48.751Z,6.17
2019-03-26T00:21:54.257Z,6.50
2019-03-26T00:22:59.609Z,6.58
2019-03-26T00:24:05.135Z,6.00
2019-03-26T00:25:10.772Z,7.60
2019-03-26T00:26:16.213Z,6.37
2019-03-26T00:27:22.067Z,6.40
2019-03-26T00:28:27.567Z,6.67
2019-03-26T00:29:33.112Z,6.03
2019-03-26T00:30:38.480Z,6.47
2019-03-26T00:31:43.864Z,6.45
2019-03-26T00:32:49.321Z,6.80
2019-03-26T00:33:54.749Z,6.10
2019-03-26T00:35:00.358Z,5.92
2019-03-26T00:36:06.076Z,5.70
2019-03-26T00:37:11.397Z,5.60
2019-03-26T00:38:16.812Z,5.92
2019-03-26T00:39:22.256Z,6.70
2019-03-26T00:40:27.712Z,4.90
2019-03-26T00:41:33.119Z,5.40
2019-03-26T00:42:38.536Z,5.20
2019-03-26T00:43:43.955Z,5.50
2019-03-26T00:44:49.445Z,5.92
2019-03-26T00:45:54.905Z,5.12
2019-03-26T00:47:00.345Z,5.78
2019-03-26T00:48:05.685Z,5.05
2019-03-26T00:49:11.177Z,5.35
2019-03-26T00:50:16.700Z,5.17
2019-03-26T00:51:22.069Z,5.50
2019-03-26T00:52:27.516Z,4.90
2019-03-26T00:53:32.812Z,5.22
2019-03-26T00:54:38.297Z,4.90
2019-03-26T00:55:43.695Z,6.12
2019-03-26T00:56:49.028Z,5.58
2019-03-26T00:57:54.376Z,5.85
2019-03-26T00:58:59.773Z,5.10
2019-03-26T01:00:06.443Z,5.15
2019-03-26T01:01:12.048Z,5.33
2019-03-26T01:02:17.513Z,5.22
2019-03-26T01:03:23.048Z,4.83
2019-03-26T01:04:33.088Z,5.40
2019-03-26T01:05:35.693Z,6.05
2019-03-26T01:06:41.116Z,5.60
2019-03-26T01:07:46.565Z,5.67
2019-03-26T01:08:51.985Z,5.15
2019-03-26T01:09:57.587Z,6.22
2019-03-26T01:11:03.084Z,5.92
2019-03-26T01:12:08.624Z,5.85
2019-03-26T01:13:14.608Z,5.42
2019-03-26T01:14:20.375Z,4.90
2019-03-26T01:15:26.001Z,4.90
2019-03-26T01:16:31.291Z,4.87
2019-03-26T01:17:36.821Z,5.45
2019-03-26T01:18:42.392Z,6.42
2019-03-26T01:19:47.727Z,6.28
2019-03-26T01:20:53.230Z,5.45
2019-03-26T01:21:58.633Z,5.50
2019-03-26T01:23:04.064Z,5.78
2019-03-26T01:24:09.382Z,5.45
2019-03-26T01:25:14.892Z,5.37
2019-03-26T01:26:20.306Z,5.53
2019-03-26T01:27:25.656Z,5.53
2019-03-26T01:28:30.956Z,5.65
2019-03-26T01:29:36.372Z,5.70
2019-03-26T01:30:41.844Z,5.70
2019-03-26T01:31:47.261Z,5.80
2019-03-26T01:32:52.612Z,5.37
2019-03-26T01:33:58.210Z,5.90
2019-03-26T01:35:03.599Z,5.83
2019-03-26T01:36:08.976Z,5.10
2019-03-26T01:37:14.424Z,5.15
2019-03-26T01:38:19.787Z,5.58
2019-03-26T01:39:25.064Z,4.90
2019-03-26T01:40:32.293Z,5.50
2019-03-26T01:41:37.664Z,5.47
2019-03-26T01:42:43.104Z,5.35
2019-03-26T01:43:48.512Z,5.33
2019-03-26T01:44:53.972Z,5.67
2019-03-26T01:45:59.408Z,5.42
2019-03-26T01:47:04.784Z,5.47
2019-03-26T01:48:10.208Z,5.50
2019-03-26T01:49:15.658Z,5.17
2019-03-26T01:50:21.108Z,5.78
2019-03-26T01:51:26.460Z,5.00
2019-03-26T01:52:31.916Z,5.75
2019-03-26T01:53:37.323Z,5.30
2019-03-26T01:54:42.863Z,5.90
2019-03-26T01:55:48.372Z,5.87
2019-03-26T01:56:53.690Z,5.37
2019-03-26T01:57:59.232Z,5.50
2019-03-26T01:59:05.160Z,4.75
2019-03-26T02:00:10.720Z,5.08
2019-03-26T02:01:16.148Z,5.53
2019-03-26T02:02:21.765Z,4.80
2019-03-26T02:03:27.096Z,5.40
2019-03-26T02:04:32.435Z,4.78
2019-03-26T02:05:37.925Z,5.40
2019-03-26T02:06:43.356Z,4.90
2019-03-26T02:07:48.711Z,4.83
2019-03-26T02:08:54.028Z,5.60
2019-03-26T02:10:00.620Z,5.42
2019-03-26T02:11:06.133Z,5.87
2019-03-26T02:12:11.583Z,6.15
2019-03-26T02:13:16.920Z,6.28
2019-03-26T02:14:22.302Z,5.97
2019-03-26T02:15:32.064Z,6.08
2019-03-26T02:16:37.500Z,7.08
2019-03-26T02:17:42.850Z,8.00
2019-03-26T02:18:48.296Z,7.25
2019-03-26T02:19:53.726Z,7.37
2019-03-26T02:20:59.188Z,7.90
2019-03-26T02:22:04.544Z,7.10
2019-03-26T02:23:09.972Z,7.45
2019-03-26T02:24:15.409Z,5.35
2019-03-26T02:25:20.807Z,4.40
2019-03-26T02:26:26.243Z,5.72
2019-03-26T02:27:31.678Z,5.03
2019-03-26T02:28:36.960Z,5.08
2019-03-26T02:29:42.256Z,5.62
2019-03-26T02:30:47.745Z,5.10
2019-03-26T02:31:54.212Z,5.15
2019-03-26T02:32:59.645Z,5.35
2019-03-26T02:34:05.170Z,5.10
2019-03-26T02:35:18.249Z,5.40
2019-03-26T02:36:18.761Z,5.22
2019-03-26T02:37:24.213Z,5.55
2019-03-26T02:38:29.637Z,5.30
2019-03-26T02:39:35.125Z,5.42
2019-03-26T02:40:40.482Z,5.22
2019-03-26T02:41:45.875Z,6.05
2019-03-26T02:42:51.399Z,7.78
2019-03-26T02:43:56.701Z,6.62
2019-03-26T02:45:02.205Z,6.05
2019-03-26T02:46:08.088Z,5.90
2019-03-26T02:47:13.568Z,6.25
2019-03-26T02:48:18.973Z,5.47
2019-03-26T02:49:24.417Z,6.87
2019-03-26T02:50:29.819Z,5.62
2019-03-26T02:51:35.173Z,5.47
2019-03-26T02:52:40.560Z,4.83
2019-03-26T02:53:45.869Z,5.78
2019-03-26T02:54:51.360Z,4.97
2019-03-26T02:55:56.760Z,5.20
2019-03-26T02:57:02.077Z,5.33
2019-03-26T02:58:07.479Z,5.72
2019-03-26T02:59:12.897Z,5.67
2019-03-26T03:00:18.354Z,5.42
2019-03-26T03:01:23.781Z,6.50
2019-03-26T03:02:29.409Z,10.05
2019-03-26T03:03:34.707Z,12.73
2019-03-26T03:04:40.104Z,15.20
2019-03-26T03:05:45.605Z,13.22
2019-03-26T03:06:50.980Z,12.13
2019-03-26T03:07:56.325Z,12.45
2019-03-26T03:09:01.734Z,11.35
2019-03-26T03:10:08.777Z,12.28
2019-03-26T03:11:14.200Z,15.58
2019-03-26T03:12:19.496Z,17.70
2019-03-26T03:13:25.003Z,17.23
2019-03-26T03:14:30.532Z,17.40
2019-03-26T03:15:36.006Z,16.70
2019-03-26T03:16:41.345Z,16.15
2019-03-26T03:17:46.722Z,16.37
2019-03-26T03:18:52.174Z,17.75
2019-03-26T03:19:57.593Z,13.45
2019-03-26T03:21:02.938Z,13.00
2019-03-26T03:22:08.384Z,13.55
2019-03-26T03:23:13.976Z,10.48
2019-03-26T03:24:19.525Z,8.65
2019-03-26T03:25:25.045Z,8.58
2019-03-26T03:26:30.504Z,6.87
2019-03-26T03:27:35.927Z,6.72
2019-03-26T03:28:41.316Z,7.00
2019-03-26T03:29:46.660Z,7.45
2019-03-26T03:30:52.014Z,7.65
2019-03-26T03:31:57.527Z,7.97
2019-03-26T03:33:02.971Z,8.10
2019-03-26T03:34:08.245Z,9.05
2019-03-26T03:35:13.909Z,8.53
2019-03-26T03:36:19.357Z,10.00
2019-03-26T03:37:24.691Z,9.90
2019-03-26T03:38:30.022Z,9.48
2019-03-26T03:39:35.437Z,10.00
2019-03-26T03:40:40.785Z,9.45
2019-03-26T03:41:46.166Z,10.13
2019-03-26T03:42:51.585Z,10.32
2019-03-26T03:43:57.033Z,10.15
2019-03-26T03:45:02.585Z,10.50
2019-03-26T03:46:07.977Z,10.55
2019-03-26T03:47:15.231Z,10.65
2019-03-26T03:48:21.598Z,10.13
2019-03-26T03:49:28.916Z,10.75
2019-03-26T03:50:34.861Z,10.68
2019-03-26T03:51:41.444Z,10.63
2019-03-26T03:52:48.558Z,10.20
2019-03-26T03:53:54.362Z,10.88
2019-03-26T03:55:00.134Z,11.35
2019-03-26T03:56:06.711Z,10.85
2019-03-26T03:57:13.963Z,11.68
2019-03-26T03:58:21.284Z,9.85
2019-03-26T03:59:29.457Z,11.38
2019-03-26T04:00:40.052Z,9.85
2019-03-26T04:01:45.421Z,8.73
2019-03-26T04:02:50.906Z,9.48
2019-03-26T04:03:56.362Z,10.25
2019-03-26T04:05:01.657Z,9.45
2019-03-26T04:06:09.713Z,10.00
2019-03-26T04:07:14.284Z,10.50
2019-03-26T04:08:19.851Z,10.03
2019-03-26T04:09:25.787Z,11.55
2019-03-26T04:10:31.335Z,10.58
2019-03-26T04:11:36.671Z,10.63
2019-03-26T04:12:42.022Z,10.85
2019-03-26T04:13:47.488Z,10.70
2019-03-26T04:14:52.860Z,10.93
2019-03-26T04:15:58.208Z,10.40
2019-03-26T04:17:03.728Z,11.48
2019-03-26T04:18:09.277Z,10.32
2019-03-26T04:19:14.777Z,11.68
2019-03-26T04:20:20.109Z,11.35
2019-03-26T04:21:25.620Z,12.25
2019-03-26T04:22:30.945Z,12.50
2019-03-26T04:23:36.372Z,11.68
2019-03-26T04:24:41.954Z,11.08
2019-03-26T04:25:47.241Z,11.40
2019-03-26T04:26:52.652Z,12.13
2019-03-26T04:27:58.090Z,11.40
2019-03-26T04:29:03.531Z,10.30
2019-03-26T04:30:10.398Z,11.33
2019-03-26T04:31:15.810Z,11.00
2019-03-26T04:32:21.153Z,10.90
2019-03-26T04:33:26.586Z,11.08
2019-03-26T04:34:32.009Z,10.40
2019-03-26T04:35:37.316Z,10.45
2019-03-26T04:36:42.736Z,11.75
2019-03-26T04:37:48.166Z,10.53
2019-03-26T04:38:53.512Z,10.28
2019-03-26T04:39:58.900Z,10.15
2019-03-26T04:41:04.804Z,9.68
2019-03-26T04:42:10.272Z,10.58
2019-03-26T04:43:18.844Z,9.78
2019-03-26T04:44:22.748Z,10.30
2019-03-26T04:45:28.273Z,11.30
2019-03-26T04:46:33.872Z,11.35
2019-03-26T04:47:39.388Z,11.97
2019-03-26T04:48:44.857Z,11.60
2019-03-26T04:49:50.313Z,11.80
2019-03-26T04:50:55.748Z,10.85
2019-03-26T04:52:01.052Z,11.85
2019-03-26T04:53:06.504Z,10.85
2019-03-26T04:54:11.839Z,10.75
2019-03-26T04:55:20.341Z,10.63
2019-03-26T04:56:25.885Z,10.38
2019-03-26T04:57:31.211Z,10.43
2019-03-26T04:58:36.697Z,9.40
2019-03-26T04:59:42.352Z,11.40
2019-03-26T05:00:47.837Z,10.75
2019-03-26T05:01:53.164Z,9.68
2019-03-26T05:02:58.612Z,9.90
2019-03-26T05:04:04.207Z,9.70
2019-03-26T05:05:12.273Z,9.53
2019-03-26T05:06:16.800Z,9.65
2019-03-26T05:07:22.392Z,9.58
2019-03-26T05:08:27.820Z,9.75
2019-03-26T05:09:33.393Z,8.80
2019-03-26T05:10:38.927Z,9.65
2019-03-26T05:11:44.516Z,8.93
2019-03-26T05:12:50.096Z,9.28
2019-03-26T05:13:55.776Z,9.75
2019-03-26T05:15:01.273Z,10.45
2019-03-26T05:16:06.934Z,9.58
2019-03-26T05:17:12.345Z,10.08
2019-03-26T05:18:18.060Z,9.33
2019-03-26T05:19:23.663Z,9.78
2019-03-26T05:20:29.132Z,9.90
2019-03-26T05:21:34.551Z,10.58
2019-03-26T05:22:39.961Z,9.93
2019-03-26T05:23:45.547Z,10.03
2019-03-26T05:24:51.133Z,10.68
2019-03-26T05:25:56.736Z,10.53
2019-03-26T05:27:02.200Z,10.90
2019-03-26T05:28:07.813Z,10.48
2019-03-26T05:29:13.396Z,10.75
2019-03-26T05:30:18.941Z,9.85
2019-03-26T05:31:24.360Z,10.38
2019-03-26T05:32:29.808Z,14.38
2019-03-26T05:33:35.611Z,10.75
2019-03-26T05:34:41.139Z,9.40
2019-03-26T05:35:46.460Z,9.68
2019-03-26T05:36:51.990Z,10.08
2019-03-26T05:37:57.731Z,10.32
2019-03-26T05:39:04.311Z,10.93
2019-03-26T05:40:11.556Z,9.95
2019-03-26T05:41:17.224Z,9.30
2019-03-26T05:42:22.693Z,9.45
2019-03-26T05:43:28.551Z,9.55
2019-03-26T05:44:34.017Z,9.88
2019-03-26T05:45:39.515Z,9.15
2019-03-26T05:46:45.707Z,9.53
2019-03-26T05:47:52.172Z,8.90
2019-03-26T05:48:57.633Z,9.73
2019-03-26T05:50:03.272Z,9.43
2019-03-26T05:51:08.667Z,8.55
2019-03-26T05:52:14.238Z,9.05
2019-03-26T05:53:19.884Z,9.40
2019-03-26T05:54:25.569Z,8.13
2019-03-26T05:55:31.142Z,8.05
2019-03-26T05:56:36.582Z,8.45
2019-03-26T05:57:42.096Z,8.73
2019-03-26T05:58:47.660Z,8.35
2019-03-26T05:59:53.116Z,7.60
2019-03-26T06:00:58.678Z,7.40
2019-03-26T06:02:14.280Z,7.55
2019-03-26T06:03:11.987Z,7.67
2019-03-26T06:04:17.628Z,7.35
2019-03-26T06:05:23.130Z,7.70
2019-03-26T06:06:28.680Z,7.45
2019-03-26T06:07:34.185Z,6.80
2019-03-26T06:08:39.897Z,7.12
2019-03-26T06:09:45.538Z,6.37
2019-03-26T06:10:51.001Z,6.85
2019-03-26T06:11:56.461Z,7.37
2019-03-26T06:13:02.049Z,7.30
2019-03-26T06:14:07.716Z,7.60
2019-03-26T06:15:13.943Z,6.97
2019-03-26T06:16:19.532Z,7.28
2019-03-26T06:17:25.054Z,7.35
2019-03-26T06:18:30.785Z,6.70
2019-03-26T06:19:36.184Z,7.25
2019-03-26T06:20:42.794Z,7.15
2019-03-26T06:21:48.285Z,7.90
2019-03-26T06:22:53.820Z,9.93
2019-03-26T06:23:59.291Z,8.48
2019-03-26T06:25:05.366Z,8.28
2019-03-26T06:26:11.920Z,9.85
2019-03-26T06:27:18.088Z,10.03
2019-03-26T06:28:24.179Z,7.47
2019-03-26T06:29:29.820Z,6.80
2019-03-26T06:30:35.378Z,8.23
2019-03-26T06:31:40.796Z,9.00
2019-03-26T06:32:46.544Z,8.18
2019-03-26T06:33:52.045Z,6.50
2019-03-26T06:34:57.701Z,6.85
2019-03-26T06:36:03.376Z,5.60
2019-03-26T06:37:17.841Z,6.55
2019-03-26T06:38:16.119Z,6.10
2019-03-26T06:39:22.015Z,6.28
2019-03-26T06:40:27.842Z,5.95
2019-03-26T06:41:33.567Z,5.37
2019-03-26T06:42:39.481Z,6.20
2019-03-26T06:43:45.168Z,4.95
2019-03-26T06:44:50.831Z,5.58
2019-03-26T06:45:56.450Z,5.50
2019-03-26T06:47:02.105Z,6.15
2019-03-26T06:48:07.818Z,5.78
2019-03-26T06:49:13.412Z,5.70
2019-03-26T06:50:18.950Z,5.70
2019-03-26T06:51:24.403Z,5.83
2019-03-26T06:52:30.032Z,5.33
2019-03-26T06:53:35.519Z,4.95
2019-03-26T06:54:40.876Z,4.95
2019-03-26T06:55:46.468Z,5.35
2019-03-26T06:56:52.417Z,5.58
2019-03-26T06:57:59.280Z,5.25
2019-03-26T06:59:05.204Z,4.67
2019-03-26T07:00:11.894Z,4.90
2019-03-26T07:01:17.688Z,4.92
2019-03-26T07:02:23.696Z,4.97
2019-03-26T07:03:29.910Z,4.95
2019-03-26T07:04:35.419Z,4.60
2019-03-26T07:05:42.322Z,5.10
2019-03-26T07:06:48.004Z,5.15
2019-03-26T07:07:53.588Z,5.28
2019-03-26T07:08:59.110Z,4.95
2019-03-26T07:10:05.029Z,4.95
2019-03-26T07:11:10.666Z,4.95
2019-03-26T07:12:16.197Z,5.33
2019-03-26T07:13:24.598Z,5.85
2019-03-26T07:14:30.248Z,4.80
2019-03-26T07:15:35.664Z,4.83
2019-03-26T07:16:41.128Z,5.72
2019-03-26T07:17:47.003Z,5.70
2019-03-26T07:18:52.430Z,5.50
2019-03-26T07:19:58.026Z,5.80
2019-03-26T07:21:03.791Z,4.55
2019-03-26T07:22:09.497Z,6.17
2019-03-26T07:23:15.290Z,5.83
2019-03-26T07:24:20.992Z,6.12
2019-03-26T07:25:26.492Z,5.92
2019-03-26T07:26:32.442Z,5.78
2019-03-26T07:27:38.377Z,5.62
2019-03-26T07:28:44.065Z,5.90
2019-03-26T07:29:49.665Z,6.90
2019-03-26T07:30:55.278Z,5.97
2019-03-26T07:32:00.812Z,7.05
2019-03-26T07:33:06.493Z,8.23
2019-03-26T07:34:12.240Z,6.97
2019-03-26T07:35:17.642Z,6.62
2019-03-26T07:36:23.045Z,6.55
2019-03-26T07:37:29.966Z,7.92
2019-03-26T07:38:35.496Z,7.50
2019-03-26T07:39:40.922Z,6.62
2019-03-26T07:40:46.660Z,7.90
2019-03-26T07:41:52.293Z,7.22
2019-03-26T07:42:57.845Z,6.55
2019-03-26T07:44:03.497Z,7.35
2019-03-26T07:45:11.965Z,7.47
2019-03-26T07:46:17.307Z,7.35
2019-03-26T07:47:22.784Z,7.70
2019-03-26T07:48:28.347Z,7.17
2019-03-26T07:49:33.956Z,7.40
2019-03-26T07:50:39.430Z,6.97
2019-03-26T07:51:44.916Z,6.78
2019-03-26T07:52:50.563Z,7.17
2019-03-26T07:53:56.034Z,7.90
2019-03-26T07:55:02.718Z,8.20
2019-03-26T07:56:08.417Z,7.87
2019-03-26T07:57:13.993Z,8.33
2019-03-26T07:58:19.612Z,6.87
2019-03-26T07:59:25.470Z,8.10
2019-03-26T08:00:37.419Z,12.50
2019-03-26T08:01:43.009Z,6.25
2019-03-26T08:02:48.653Z,6.83
2019-03-26T08:03:54.221Z,16.17
2019-03-26T08:04:59.914Z,6.50
2019-03-26T08:06:07.808Z,7.92
2019-03-26T08:07:13.456Z,7.20
2019-03-26T08:08:19.248Z,7.10
2019-03-26T08:09:25.110Z,6.60
2019-03-26T08:10:30.937Z,6.10
2019-03-26T08:11:36.453Z,5.85
2019-03-26T08:12:42.017Z,17.23
2019-03-26T08:13:47.639Z,13.55
2019-03-26T08:14:53.324Z,10.18
2019-03-26T08:15:58.953Z,17.52
2019-03-26T08:17:05.344Z,9.83
2019-03-26T08:18:10.972Z,5.70
2019-03-26T08:19:16.517Z,11.57
2019-03-26T08:20:22.154Z,7.65
2019-03-26T08:21:27.635Z,7.47
2019-03-26T08:22:33.266Z,7.80
2019-03-26T08:23:38.883Z,5.15
2019-03-26T08:24:44.496Z,4.70
2019-03-26T08:25:50.640Z,5.83
2019-03-26T08:26:56.205Z,6.45
2019-03-26T08:28:04.901Z,4.83
2019-03-26T08:29:09.482Z,5.25
2019-03-26T08:30:15.824Z,5.40
2019-03-26T08:31:21.552Z,5.15
2019-03-26T08:32:27.438Z,5.83
2019-03-26T08:33:33.185Z,5.30
2019-03-26T08:34:38.937Z,5.67
2019-03-26T08:35:44.597Z,5.72
2019-03-26T08:36:50.182Z,5.90
2019-03-26T08:37:55.705Z,5.42
2019-03-26T08:39:01.201Z,5.30
2019-03-26T08:40:10.817Z,5.00
2019-03-26T08:41:16.453Z,4.65
2019-03-26T08:42:21.996Z,4.62
2019-03-26T08:43:27.597Z,3.95
2019-03-26T08:44:33.479Z,4.00
2019-03-26T08:45:39.270Z,4.80
2019-03-26T08:46:46.320Z,4.87
2019-03-26T08:47:52.183Z,4.12
2019-03-26T08:48:58.790Z,4.28
2019-03-26T08:50:04.651Z,4.55
2019-03-26T08:51:10.299Z,3.85
2019-03-26T08:52:18.084Z,4.15
2019-03-26T08:53:23.710Z,4.12
2019-03-26T08:54:29.253Z,4.40
2019-03-26T08:55:34.855Z,5.22
2019-03-26T08:56:40.521Z,4.75
2019-03-26T08:57:46.627Z,4.30
2019-03-26T08:58:52.211Z,4.33
2019-03-26T09:00:00.975Z,4.20
2019-03-26T09:01:07.726Z,4.87
2019-03-26T09:02:13.445Z,4.10
2019-03-26T09:03:22.417Z,3.83
2019-03-26T09:04:28.192Z,4.53
2019-03-26T09:05:33.858Z,4.85
2019-03-26T09:06:39.456Z,4.40
2019-03-26T09:07:45.021Z,5.45
2019-03-26T09:08:50.714Z,4.53
2019-03-26T09:09:57.884Z,4.30
2019-03-26T09:11:04.788Z,4.60
2019-03-26T09:12:10.405Z,4.05
2019-03-26T09:13:15.976Z,4.37
2019-03-26T09:14:23.094Z,3.70
2019-03-26T09:15:28.852Z,3.70
2019-03-26T09:16:34.509Z,3.30
2019-03-26T09:17:40.231Z,4.25
2019-03-26T09:18:45.716Z,4.22
2019-03-26T09:19:52.166Z,4.33
2019-03-26T09:20:57.765Z,4.05
2019-03-26T09:22:03.133Z,3.92
2019-03-26T09:23:12.078Z,4.35
2019-03-26T09:24:16.282Z,3.67
2019-03-26T09:25:21.807Z,3.60
2019-03-26T09:26:27.508Z,3.92
2019-03-26T09:27:33.028Z,3.33
2019-03-26T09:28:38.575Z,4.00
2019-03-26T09:29:44.142Z,3.95
2019-03-26T09:30:49.671Z,3.90
2019-03-26T09:31:55.262Z,4.05
2019-03-26T09:33:00.688Z,4.20
2019-03-26T09:34:06.309Z,3.65
2019-03-26T09:35:12.820Z,3.58
2019-03-26T09:36:18.275Z,3.08
2019-03-26T09:37:23.911Z,3.90
2019-03-26T09:38:38.895Z,3.58
2019-03-26T09:39:38.454Z,4.40
2019-03-26T09:40:44.282Z,4.12
2019-03-26T09:41:50.062Z,3.60
2019-03-26T09:42:55.732Z,3.62
2019-03-26T09:44:01.202Z,4.30
2019-03-26T09:45:08.315Z,4.10
2019-03-26T09:46:13.847Z,5.92
2019-03-26T09:47:19.572Z,4.10
2019-03-26T09:48:25.274Z,4.42
2019-03-26T09:49:31.764Z,5.20
2019-03-26T09:50:38.133Z,4.85
2019-03-26T09:51:47.019Z,4.47
2019-03-26T09:52:52.659Z,5.15
2019-03-26T09:53:58.145Z,4.75
2019-03-26T09:55:03.741Z,4.60
2019-03-26T09:56:09.417Z,4.85
2019-03-26T09:57:15.140Z,5.40
2019-03-26T09:58:20.720Z,5.55
2019-03-26T09:59:26.249Z,5.08
2019-03-26T10:00:31.937Z,4.55
2019-03-26T10:01:37.571Z,5.30
2019-03-26T10:02:45.350Z,5.10
2019-03-26T10:03:51.016Z,4.50
2019-03-26T10:04:56.437Z,4.85
2019-03-26T10:06:02.296Z,4.85
2019-03-26T10:07:20.556Z,4.30
2019-03-26T10:08:17.660Z,3.65
2019-03-26T10:09:22.294Z,3.45
2019-03-26T10:10:29.321Z,4.28
2019-03-26T10:11:35.096Z,4.50
2019-03-26T10:12:40.538Z,4.05
2019-03-26T10:13:45.992Z,4.12
2019-03-26T10:14:52.751Z,4.05
2019-03-26T10:15:58.093Z,4.20
2019-03-26T10:17:03.748Z,4.00
2019-03-26T10:18:09.648Z,3.67
2019-03-26T10:19:17.050Z,4.20
2019-03-26T10:20:22.564Z,3.52
2019-03-26T10:21:28.274Z,5.10
2019-03-26T10:22:33.903Z,4.00
2019-03-26T10:23:39.770Z,4.50
2019-03-26T10:24:45.922Z,3.40
2019-03-26T10:25:51.503Z,3.58
2019-03-26T10:26:57.397Z,3.30
2019-03-26T10:28:03.300Z,3.22
2019-03-26T10:29:23.998Z,3.35
2019-03-26T10:30:17.252Z,3.02
2019-03-26T10:31:23.026Z,3.37
2019-03-26T10:32:28.773Z,3.22
2019-03-26T10:33:34.486Z,2.90
2019-03-26T10:34:40.892Z,2.70
2019-03-26T10:35:46.525Z,2.37
2019-03-26T10:36:52.259Z,2.83
2019-03-26T10:37:58.118Z,2.77
2019-03-26T10:39:05.561Z,2.70
2019-03-26T10:40:14.568Z,2.95
2019-03-26T10:41:20.691Z,2.60
2019-03-26T10:42:26.405Z,2.72
2019-03-26T10:43:33.814Z,2.95
2019-03-26T10:44:39.512Z,2.87
2019-03-26T10:45:45.260Z,2.62
2019-03-26T10:46:53.480Z,2.70
2019-03-26T10:48:01.805Z,2.40
2019-03-26T10:49:07.537Z,1.98
2019-03-26T10:50:13.293Z,2.20
2019-03-26T10:51:19.629Z,2.60
2019-03-26T10:52:25.259Z,2.95
2019-03-26T10:53:31.060Z,2.00
2019-03-26T10:54:36.751Z,1.80
2019-03-26T10:55:44.600Z,2.10
2019-03-26T10:56:52.408Z,1.92
2019-03-26T10:57:57.903Z,1.85
2019-03-26T10:59:04.422Z,1.70
2019-03-26T11:00:10.577Z,2.15
2019-03-26T11:01:16.204Z,2.00
2019-03-26T11:02:21.969Z,1.80
2019-03-26T11:03:27.689Z,1.72
2019-03-26T11:04:33.677Z,2.15
2019-03-26T11:05:39.172Z,2.00
2019-03-26T11:06:44.840Z,1.77
2019-03-26T11:07:50.380Z,1.80
2019-03-26T11:08:56.092Z,1.85
2019-03-26T11:10:01.860Z,1.87
2019-03-26T11:11:13.930Z,1.52
2019-03-26T11:12:19.743Z,1.90
2019-03-26T11:13:25.555Z,1.62
2019-03-26T11:14:32.856Z,1.70
2019-03-26T11:15:38.678Z,1.62
2019-03-26T11:16:47.187Z,1.70
2019-03-26T11:17:54.898Z,1.87
2019-03-26T11:19:00.904Z,1.47
2019-03-26T11:20:11.318Z,1.80
2019-03-26T11:21:18.436Z,1.80
2019-03-26T11:22:24.138Z,1.50
2019-03-26T11:23:29.733Z,1.60
2019-03-26T11:24:35.475Z,1.50
2019-03-26T11:25:41.084Z,1.60
2019-03-26T11:26:47.171Z,1.57
2019-03-26T11:27:54.163Z,1.80
2019-03-26T11:28:59.778Z,1.80
2019-03-26T11:30:06.457Z,1.90
2019-03-26T11:31:13.480Z,2.00
2019-03-26T11:32:19.040Z,1.57
2019-03-26T11:33:25.852Z,1.77
2019-03-26T11:34:33.570Z,1.57
2019-03-26T11:35:39.412Z,1.60
2019-03-26T11:36:45.219Z,1.90
2019-03-26T11:37:50.856Z,1.55
2019-03-26T11:38:56.718Z,1.80
2019-03-26T11:40:02.548Z,1.57
2019-03-26T11:41:08.293Z,1.75
2019-03-26T11:42:14.027Z,1.80
2019-03-26T11:43:20.085Z,1.60
2019-03-26T11:44:25.972Z,1.80
2019-03-26T11:45:32.087Z,1.47
2019-03-26T11:46:39.128Z,1.55
2019-03-26T11:47:48.769Z,1.25
2019-03-26T11:48:54.788Z,1.60
2019-03-26T11:50:00.621Z,1.60
2019-03-26T11:51:06.688Z,1.55
2019-03-26T11:52:12.400Z,1.50
2019-03-26T11:53:17.992Z,1.50
2019-03-26T11:54:23.850Z,1.87
2019-03-26T11:55:29.383Z,1.42
2019-03-26T11:56:35.012Z,1.32
2019-03-26T11:57:40.971Z,1.45
2019-03-26T11:58:46.896Z,1.20
2019-03-26T11:59:52.784Z,1.50
2019-03-26T12:00:58.428Z,1.40
2019-03-26T12:02:04.911Z,1.35
2019-03-26T12:03:10.644Z,1.40
2019-03-26T12:04:16.263Z,1.20
2019-03-26T12:05:21.904Z,1.55
2019-03-26T12:06:27.618Z,1.60
2019-03-26T12:07:33.339Z,1.40
2019-03-26T12:08:39.128Z,1.98
2019-03-26T12:09:46.498Z,1.42
2019-03-26T12:10:53.645Z,1.70
2019-03-26T12:11:59.599Z,1.40
2019-03-26T12:13:05.443Z,1.30
2019-03-26T12:14:11.310Z,1.35
2019-03-26T12:15:17.191Z,3.15
2019-03-26T12:16:22.928Z,1.42
2019-03-26T12:17:28.533Z,1.30
2019-03-26T12:18:36.012Z,1.12
2019-03-26T12:19:42.052Z,1.20
2019-03-26T12:20:47.873Z,1.42
2019-03-26T12:21:56.295Z,1.20
2019-03-26T12:23:02.953Z,1.82
2019-03-26T12:24:08.569Z,1.55
2019-03-26T12:25:14.360Z,1.42
2019-03-26T12:26:20.128Z,1.22
2019-03-26T12:27:26.879Z,1.70
2019-03-26T12:28:32.692Z,1.72
2019-03-26T12:29:38.672Z,1.70
2019-03-26T12:30:44.739Z,1.57
2019-03-26T12:31:50.630Z,1.20
2019-03-26T12:32:56.564Z,1.20
2019-03-26T12:34:02.713Z,1.75
2019-03-26T12:35:08.751Z,1.20
2019-03-26T12:36:14.715Z,1.40
2019-03-26T12:37:21.048Z,1.50
2019-03-26T12:38:26.712Z,1.57
2019-03-26T12:39:33.833Z,1.37
2019-03-26T12:40:39.356Z,1.45
2019-03-26T12:41:45.024Z,1.30
2019-03-26T12:42:50.757Z,1.27
2019-03-26T12:43:56.609Z,1.42
2019-03-26T12:45:02.150Z,1.40
2019-03-26T12:46:08.025Z,1.20
2019-03-26T12:47:13.692Z,1.10
2019-03-26T12:48:19.396Z,1.27
2019-03-26T12:49:25.046Z,1.52
2019-03-26T12:50:32.292Z,1.10
2019-03-26T12:51:39.412Z,1.50
2019-03-26T12:52:45.448Z,1.37
2019-03-26T12:53:51.434Z,1.75
2019-03-26T12:54:57.049Z,1.30
2019-03-26T12:56:02.642Z,1.30
2019-03-26T12:57:08.327Z,1.20
2019-03-26T12:58:13.862Z,1.27
2019-03-26T12:59:19.640Z,1.25
2019-03-26T13:00:32.048Z,1.35
2019-03-26T13:01:37.828Z,1.52
2019-03-26T13:02:43.559Z,1.20
2019-03-26T13:03:49.201Z,1.50
2019-03-26T13:04:57.389Z,1.40
2019-03-26T13:06:03.214Z,3.42
2019-03-26T13:07:08.850Z,1.40
2019-03-26T13:08:14.692Z,1.80
2019-03-26T13:09:20.596Z,1.40
2019-03-26T13:10:26.300Z,1.50
2019-03-26T13:11:32.138Z,1.45
2019-03-26T13:12:37.704Z,1.30
2019-03-26T13:13:43.215Z,1.30
2019-03-26T13:14:49.092Z,1.52
2019-03-26T13:15:55.493Z,1.20
2019-03-26T13:17:01.202Z,1.57
2019-03-26T13:18:07.242Z,1.20
2019-03-26T13:19:13.134Z,1.20
2019-03-26T13:20:19.010Z,1.10
2019-03-26T13:21:24.730Z,1.30
2019-03-26T13:22:30.405Z,1.45
2019-03-26T13:23:35.969Z,1.20
2019-03-26T13:24:41.567Z,1.05
2019-03-26T13:25:48.422Z,1.10
2019-03-26T13:26:54.514Z,1.12
2019-03-26T13:28:00.338Z,1.17
2019-03-26T13:29:06.148Z,1.30
2019-03-26T13:30:12.231Z,1.40
2019-03-26T13:31:17.824Z,1.00
2019-03-26T13:32:23.327Z,1.10
2019-03-26T13:33:29.398Z,1.20
2019-03-26T13:34:35.003Z,1.15
2019-03-26T13:35:40.516Z,1.20
2019-03-26T13:36:46.844Z,1.32
2019-03-26T13:37:53.515Z,1.77
2019-03-26T13:38:59.373Z,1.55
2019-03-26T13:40:05.399Z,1.30
2019-03-26T13:41:10.865Z,1.00
2019-03-26T13:42:16.522Z,1.62
2019-03-26T13:43:22.156Z,1.20
2019-03-26T13:44:27.888Z,1.15
2019-03-26T13:45:33.535Z,1.17
2019-03-26T13:46:39.688Z,1.12
2019-03-26T13:47:45.623Z,1.30
2019-03-26T13:48:51.358Z,1.17
2019-03-26T13:49:57.084Z,1.52
2019-03-26T13:51:02.805Z,1.20
2019-03-26T13:52:10.914Z,1.17
2019-03-26T13:53:20.100Z,1.50
2019-03-26T13:54:25.766Z,1.32
2019-03-26T13:55:31.438Z,1.65
2019-03-26T13:56:37.018Z,1.30
2019-03-26T13:57:44.206Z,1.55
2019-03-26T13:58:49.915Z,1.40
2019-03-26T13:59:55.716Z,1.30
2019-03-26T14:01:01.878Z,1.35
2019-03-26T14:02:08.885Z,1.37
2019-03-26T14:03:14.776Z,1.37
2019-03-26T14:04:20.906Z,1.77
2019-03-26T14:05:27.413Z,1.52
2019-03-26T14:06:33.329Z,1.40
2019-03-26T14:07:39.739Z,1.62
2019-03-26T14:08:46.525Z,1.20
2019-03-26T14:09:52.177Z,1.40
2019-03-26T14:10:57.886Z,1.40
2019-03-26T14:12:08.187Z,1.40
2019-03-26T14:13:13.609Z,1.50
2019-03-26T14:14:19.191Z,1.30
2019-03-26T14:15:24.956Z,1.50
2019-03-26T14:16:30.693Z,1.20
2019-03-26T14:17:36.280Z,1.40
2019-03-26T14:18:42.096Z,1.30
2019-03-26T14:19:47.973Z,1.30
2019-03-26T14:20:53.616Z,1.25
2019-03-26T14:22:02.444Z,1.50
2019-03-26T14:23:08.549Z,1.45
2019-03-26T14:24:14.276Z,1.65
2019-03-26T14:25:20.046Z,1.30
2019-03-26T14:26:27.211Z,1.30
2019-03-26T14:27:32.928Z,1.47
2019-03-26T14:28:38.669Z,1.45
2019-03-26T14:29:45.497Z,1.32
2019-03-26T14:30:51.151Z,1.70
2019-03-26T14:31:57.159Z,1.30
2019-03-26T14:33:02.737Z,1.60